createdAt,value
2019-03-03T00:01:29.700Z,97776.74
2019-03-03T00:03:59.919Z,97779.58
2019-03-03T00:06:30.191Z,97782.55
2019-03-03T00:09:03.694Z,97783.52
2019-03-03T00:11:33.045Z,97782.39
2019-03-03T00:14:02.452Z,97775.31
2019-03-03T00:16:34.341Z,97773.33
2019-03-03T00:19:04.826Z,97767.74
2019-03-03T00:21:34.091Z,97766.25
2019-03-03T00:24:04.405Z,97768.64
2019-03-03T00:26:34.743Z,97757.30
2019-03-03T00:29:04.204Z,97758.73
2019-03-03T00:31:39.359Z,97758.25
2019-03-03T00:34:09.617Z,97756.88
2019-03-03T00:36:57.231Z,97755.16
2019-03-03T00:39:44.079Z,97762.53
2019-03-03T00:42:24.658Z,97765.67
2019-03-03T00:45:07.282Z,97763.40
2019-03-03T00:47:55.540Z,97761.30
2019-03-03T00:50:29.104Z,97753.43
2019-03-03T00:53:00.049Z,97752.83
2019-03-03T00:55:42.693Z,97756.73
2019-03-03T00:58:18.778Z,97758.80
2019-03-03T01:00:51.095Z,97759.78
2019-03-03T01:03:28.685Z,97754.42
2019-03-03T01:06:05.170Z,97764.52
2019-03-03T01:08:37.029Z,97767.73
2019-03-03T01:11:09.043Z,97763.15
2019-03-03T01:13:44.113Z,97767.86
2019-03-03T01:16:24.986Z,97769.38
2019-03-03T01:19:05.845Z,97769.73
2019-03-03T01:21:40.278Z,97769.87
2019-03-03T01:24:14.490Z,97769.22
2019-03-03T01:26:45.806Z,97764.84
2019-03-03T01:29:16.562Z,97761.44
2019-03-03T01:31:45.867Z,97761.09
2019-03-03T01:34:16.210Z,97755.68
2019-03-03T01:36:45.560Z,97759.11
2019-03-03T01:39:15.379Z,97758.52
2019-03-03T01:41:45.613Z,97762.69
2019-03-03T01:44:15.821Z,97769.91
2019-03-03T01:46:46.499Z,97770.13
2019-03-03T01:49:17.572Z,97768.97
2019-03-03T01:51:47.824Z,97772.88
2019-03-03T01:54:20.019Z,97776.75
2019-03-03T01:56:50.364Z,97776.18
2019-03-03T01:59:20.623Z,97767.59
2019-03-03T02:01:51.090Z,97767.59
2019-03-03T02:04:21.299Z,97766.21
2019-03-03T02:06:50.572Z,97757.40
2019-03-03T02:09:20.973Z,97759.47
2019-03-03T02:11:52.014Z,97759.11
2019-03-03T02:14:21.332Z,97758.91
2019-03-03T02:16:51.567Z,97761.79
2019-03-03T02:19:21.926Z,97759.00
2019-03-03T02:21:53.786Z,97760.49
2019-03-03T02:24:24.066Z,97752.25
2019-03-03T02:26:55.885Z,97749.05
2019-03-03T02:29:25.354Z,97746.95
2019-03-03T02:31:54.696Z,97748.58
2019-03-03T02:34:24.215Z,97744.45
2019-03-03T02:36:54.947Z,97755.41
2019-03-03T02:39:24.976Z,97746.73
2019-03-03T02:41:57.809Z,97745.58
2019-03-03T02:44:30.133Z,97742.17
2019-03-03T02:47:00.866Z,97737.58
2019-03-03T02:49:30.148Z,97746.86
2019-03-03T02:51:59.396Z,97736.33
2019-03-03T02:54:29.721Z,97742.40
2019-03-03T02:56:59.952Z,97733.67
2019-03-03T02:59:29.260Z,97745.71
2019-03-03T03:02:00.306Z,97743.55
2019-03-03T03:04:31.313Z,97749.14
2019-03-03T03:07:05.732Z,97748.38
2019-03-03T03:09:37.719Z,97741.24
2019-03-03T03:12:08.874Z,97746.75
2019-03-03T03:14:45.386Z,97755.46
2019-03-03T03:17:32.210Z,97750.31
2019-03-03T03:20:12.984Z,97747.77
2019-03-03T03:22:52.792Z,97746.48
2019-03-03T03:25:24.667Z,97745.11
2019-03-03T03:28:01.351Z,97749.19
2019-03-03T03:30:47.425Z,97747.52
2019-03-03T03:33:25.111Z,97747.00
2019-03-03T03:35:59.479Z,97751.34
2019-03-03T03:38:37.028Z,97749.27
2019-03-03T03:41:10.681Z,97750.17
2019-03-03T03:43:42.640Z,97750.17
2019-03-03T03:46:14.544Z,97755.47
2019-03-03T03:49:01.235Z,97752.97
2019-03-03T03:51:38.661Z,97754.56
2019-03-03T03:54:13.525Z,97748.41
2019-03-03T03:57:01.652Z,97745.97
2019-03-03T03:59:41.607Z,97738.31
2019-03-03T04:02:28.518Z,97747.04
2019-03-03T04:05:04.261Z,97745.19
2019-03-03T04:07:35.163Z,97743.69
2019-03-03T04:10:07.311Z,97742.62
2019-03-03T04:12:51.854Z,97733.67
2019-03-03T04:15:24.815Z,97734.57
2019-03-03T04:17:58.543Z,97731.61
2019-03-03T04:20:38.012Z,97735.48
2019-03-03T04:23:11.722Z,97725.02
2019-03-03T04:25:59.309Z,97724.59
2019-03-03T04:28:49.013Z,97722.75
2019-03-03T04:31:20.877Z,97732.03
2019-03-03T04:33:55.279Z,97723.82
2019-03-03T04:36:26.260Z,97727.13
2019-03-03T04:38:57.224Z,97724.90
2019-03-03T04:41:33.869Z,97728.72
2019-03-03T04:44:04.747Z,97720.47
2019-03-03T04:46:37.677Z,97713.03
2019-03-03T04:49:24.354Z,97710.28
2019-03-03T04:51:56.237Z,97703.19
2019-03-03T04:54:41.332Z,97710.72
2019-03-03T04:57:13.196Z,97707.87
2019-03-03T04:59:56.781Z,97707.31
2019-03-03T05:02:34.188Z,97695.72
2019-03-03T05:05:06.097Z,97701.22
2019-03-03T05:07:56.341Z,97700.30
2019-03-03T05:10:45.065Z,97700.30
2019-03-03T05:13:19.973Z,97700.52
2019-03-03T05:15:50.914Z,97707.87
2019-03-03T05:18:25.614Z,97703.27
2019-03-03T05:20:54.917Z,97700.66
2019-03-03T05:23:25.165Z,97703.62
2019-03-03T05:25:55.473Z,97697.86
2019-03-03T05:28:25.710Z,97699.58
2019-03-03T05:30:54.929Z,97692.83
2019-03-03T05:33:24.196Z,97694.03
2019-03-03T05:35:54.388Z,97694.94
2019-03-03T05:38:24.588Z,97696.62
2019-03-03T05:40:54.821Z,97694.46
2019-03-03T05:43:25.107Z,97694.20
2019-03-03T05:45:55.607Z,97687.77
2019-03-03T05:48:26.603Z,97686.98
2019-03-03T05:50:57.484Z,97680.53
2019-03-03T05:53:27.692Z,97688.36
2019-03-03T05:55:56.977Z,97688.23
2019-03-03T05:58:26.292Z,97690.67
2019-03-03T06:00:56.517Z,97689.69
2019-03-03T06:03:26.732Z,97691.93
2019-03-03T06:05:56.019Z,97690.55
2019-03-03T06:08:25.365Z,97688.41
2019-03-03T06:10:55.629Z,97687.16
2019-03-03T06:13:27.459Z,97691.97
2019-03-03T06:15:56.706Z,97689.22
2019-03-03T06:18:26.787Z,97690.16
2019-03-03T06:20:57.007Z,97685.25
2019-03-03T06:23:29.197Z,97678.06
2019-03-03T06:25:59.405Z,97686.66
2019-03-03T06:28:29.513Z,97687.94
2019-03-03T06:30:59.779Z,97688.78
2019-03-03T06:33:31.985Z,97687.28
2019-03-03T06:36:01.248Z,97683.97
2019-03-03T06:38:31.468Z,97678.83
2019-03-03T06:41:03.220Z,97676.88
2019-03-03T06:43:34.606Z,97684.83
2019-03-03T06:46:03.843Z,97686.69
2019-03-03T06:48:37.871Z,97687.84
2019-03-03T06:51:08.099Z,97690.38
2019-03-03T06:53:39.300Z,97700.27
2019-03-03T06:56:10.056Z,97689.81
2019-03-03T06:58:40.270Z,97697.29
2019-03-03T07:01:10.537Z,97694.09
2019-03-03T07:03:41.649Z,97701.23
2019-03-03T07:06:10.915Z,97692.47
2019-03-03T07:08:41.137Z,97692.02
2019-03-03T07:11:10.407Z,97683.71
2019-03-03T07:13:40.623Z,97682.20
2019-03-03T07:16:09.892Z,97688.27
2019-03-03T07:18:40.112Z,97677.36
2019-03-03T07:21:09.381Z,97680.96
2019-03-03T07:23:39.597Z,97676.28
2019-03-03T07:26:08.815Z,97688.67
2019-03-03T07:28:38.133Z,97685.44
2019-03-03T07:31:07.432Z,97690.27
2019-03-03T07:33:37.646Z,97692.44
2019-03-03T07:36:08.743Z,97692.44
2019-03-03T07:38:40.847Z,97695.61
2019-03-03T07:41:11.054Z,97697.86
2019-03-03T07:43:40.366Z,97693.16
2019-03-03T07:46:11.371Z,97694.66
2019-03-03T07:48:41.584Z,97691.56
2019-03-03T07:51:11.879Z,97690.86
2019-03-03T07:53:41.160Z,97698.88
2019-03-03T07:56:10.439Z,97703.12
2019-03-03T07:58:39.725Z,97699.30
2019-03-03T08:01:13.107Z,97704.81
2019-03-03T08:03:43.332Z,97706.70
2019-03-03T08:06:14.798Z,97713.59
2019-03-03T08:08:44.067Z,97709.25
2019-03-03T08:11:14.150Z,97710.87
2019-03-03T08:13:44.437Z,97707.19
2019-03-03T08:16:14.673Z,97701.89
2019-03-03T08:18:44.903Z,97703.27
2019-03-03T08:21:15.188Z,97693.83
2019-03-03T08:23:45.397Z,97692.34
2019-03-03T08:26:16.168Z,97691.02
2019-03-03T08:28:46.372Z,97689.99
2019-03-03T08:31:16.613Z,97694.69
2019-03-03T08:33:47.016Z,97681.22
2019-03-03T08:36:16.372Z,97674.58
2019-03-03T08:38:46.596Z,97670.30
2019-03-03T08:41:16.887Z,97659.00
2019-03-03T08:43:48.773Z,97661.52
2019-03-03T08:46:20.739Z,97647.64
2019-03-03T08:49:02.942Z,97646.35
2019-03-03T08:51:36.675Z,97642.25
2019-03-03T08:54:08.089Z,97643.72
2019-03-03T08:56:59.341Z,97644.06
2019-03-03T08:59:31.185Z,97648.07
2019-03-03T09:02:08.878Z,97644.04
2019-03-03T09:04:46.550Z,97647.67
2019-03-03T09:07:26.244Z,97626.21
2019-03-03T09:10:05.956Z,97635.24
2019-03-03T09:12:43.861Z,97635.54
2019-03-03T09:15:21.358Z,97627.66
2019-03-03T09:18:12.355Z,97630.86
2019-03-03T09:20:48.974Z,97628.22
2019-03-03T09:23:31.590Z,97634.53
2019-03-03T09:26:09.228Z,97639.95
2019-03-03T09:28:42.838Z,97633.91
2019-03-03T09:31:20.550Z,97621.36
2019-03-03T09:33:56.132Z,97633.25
2019-03-03T09:36:44.168Z,97636.94
2019-03-03T09:39:16.440Z,97635.66
2019-03-03T09:41:48.922Z,97642.52
2019-03-03T09:44:20.781Z,97640.38
2019-03-03T09:46:51.684Z,97647.97
2019-03-03T09:49:23.867Z,97659.26
2019-03-03T09:52:11.908Z,97645.34
2019-03-03T09:54:45.603Z,97652.91
2019-03-03T09:57:18.063Z,97650.62
2019-03-03T10:00:00.527Z,97651.94
2019-03-03T10:02:42.147Z,97652.36
2019-03-03T10:05:19.039Z,97651.38
2019-03-03T10:07:49.438Z,97644.00
2019-03-03T10:10:29.187Z,97642.23
2019-03-03T10:13:12.974Z,97644.88
2019-03-03T10:15:52.373Z,97647.22
2019-03-03T10:18:25.867Z,97648.02
2019-03-03T10:21:14.867Z,97636.57
2019-03-03T10:24:03.312Z,97636.95
2019-03-03T10:26:43.825Z,97640.73
2019-03-03T10:29:20.864Z,97643.91
2019-03-03T10:31:52.709Z,97639.83
2019-03-03T10:34:27.305Z,97630.02
2019-03-03T10:37:07.108Z,97636.66
2019-03-03T10:39:41.638Z,97636.86
2019-03-03T10:42:21.221Z,97634.38
2019-03-03T10:45:07.917Z,97631.69
2019-03-03T10:47:39.790Z,97635.48
2019-03-03T10:50:32.175Z,97639.18
2019-03-03T10:53:04.835Z,97632.56
2019-03-03T10:55:35.746Z,97639.84
2019-03-03T10:58:19.525Z,97642.53
2019-03-03T11:00:51.894Z,97639.31
2019-03-03T11:03:26.478Z,97645.24
2019-03-03T11:06:16.407Z,97628.55
2019-03-03T11:08:54.130Z,97642.86
2019-03-03T11:11:42.146Z,97635.79
2019-03-03T11:14:17.321Z,97633.98
2019-03-03T11:17:05.363Z,97626.73
2019-03-03T11:19:56.112Z,97623.07
2019-03-03T11:22:31.282Z,97610.59
2019-03-03T11:25:05.094Z,97602.86
2019-03-03T11:27:56.653Z,97598.19
2019-03-03T11:30:31.667Z,97600.53
2019-03-03T11:33:05.428Z,97591.48
2019-03-03T11:35:43.191Z,97588.70
2019-03-03T11:38:29.846Z,97583.89
2019-03-03T11:41:01.712Z,97584.09
2019-03-03T11:43:35.252Z,97586.46
2019-03-03T11:46:25.037Z,97582.27
2019-03-03T11:48:55.942Z,97579.06
2019-03-03T11:51:32.484Z,97586.87
2019-03-03T11:54:04.435Z,97572.25
2019-03-03T11:56:38.317Z,97578.84
2019-03-03T11:59:25.139Z,97562.75
2019-03-03T12:02:15.023Z,97563.73
2019-03-03T12:04:48.453Z,97570.55
2019-03-03T12:07:20.331Z,97563.27
2019-03-03T12:10:07.247Z,97557.06
2019-03-03T12:12:44.041Z,97559.03
2019-03-03T12:15:33.613Z,97558.97
2019-03-03T12:18:05.540Z,97552.25
2019-03-03T12:20:37.421Z,97550.50
2019-03-03T12:23:11.217Z,97551.05
2019-03-03T12:25:46.053Z,97551.83
2019-03-03T12:28:20.591Z,97546.44
2019-03-03T12:30:52.493Z,97545.63
2019-03-03T12:33:39.181Z,97548.67
2019-03-03T12:36:12.675Z,97540.22
2019-03-03T12:38:43.108Z,97540.20
2019-03-03T12:41:29.774Z,97541.98
2019-03-03T12:44:04.360Z,97538.83
2019-03-03T12:46:36.284Z,97536.33
2019-03-03T12:49:23.717Z,97526.50
2019-03-03T12:51:55.574Z,97528.25
2019-03-03T12:54:36.142Z,97526.63
2019-03-03T12:57:08.046Z,97526.53
2019-03-03T12:59:52.206Z,97521.59
2019-03-03T13:02:23.108Z,97517.97
2019-03-03T13:05:09.839Z,97514.52
2019-03-03T13:07:49.293Z,97508.37
2019-03-03T13:10:23.553Z,97503.63
2019-03-03T13:12:57.926Z,97499.38
2019-03-03T13:15:28.341Z,97492.04
2019-03-03T13:18:00.196Z,97489.06
2019-03-03T13:20:32.046Z,97485.39
2019-03-03T13:23:02.427Z,97481.66
2019-03-03T13:25:51.188Z,97476.70
2019-03-03T13:28:37.025Z,97467.43
2019-03-03T13:31:16.622Z,97460.17
2019-03-03T13:33:51.086Z,97462.37
2019-03-03T13:36:37.867Z,97447.66
2019-03-03T13:39:28.873Z,97448.22
2019-03-03T13:42:12.557Z,97449.50
2019-03-03T13:44:42.898Z,97441.45
2019-03-03T13:47:13.160Z,97433.56
2019-03-03T13:49:42.501Z,97431.75
2019-03-03T13:52:13.154Z,97422.23
2019-03-03T13:54:42.557Z,97419.06
2019-03-03T13:57:12.941Z,97415.58
2019-03-03T13:59:42.217Z,97413.96
2019-03-03T14:02:15.719Z,97410.95
2019-03-03T14:04:47.821Z,97401.94
2019-03-03T14:07:18.140Z,97394.61
2019-03-03T14:09:48.869Z,97390.79
2019-03-03T14:12:19.092Z,97383.38
2019-03-03T14:14:49.316Z,97374.08
2019-03-03T14:17:20.147Z,97381.38
2019-03-03T14:19:49.464Z,97388.24
2019-03-03T14:22:21.581Z,97380.05
2019-03-03T14:24:52.172Z,97381.48
2019-03-03T14:27:23.566Z,97376.31
2019-03-03T14:29:55.733Z,97373.34
2019-03-03T14:32:26.034Z,97370.80
2019-03-03T14:34:56.237Z,97372.80
2019-03-03T14:37:26.934Z,97367.29
2019-03-03T14:39:57.234Z,97367.79
2019-03-03T14:42:26.533Z,97368.29
2019-03-03T14:44:56.807Z,97361.02
2019-03-03T14:47:27.054Z,97368.12
2019-03-03T14:49:56.292Z,97347.45
2019-03-03T14:52:27.342Z,97355.64
2019-03-03T14:54:56.758Z,97357.03
2019-03-03T14:57:29.076Z,97348.98
2019-03-03T14:59:58.385Z,97346.22
2019-03-03T15:02:29.915Z,97348.05
2019-03-03T15:04:59.236Z,97340.00
2019-03-03T15:07:29.518Z,97337.12
2019-03-03T15:09:59.725Z,97326.33
2019-03-03T15:12:30.039Z,97321.86
2019-03-03T15:15:00.328Z,97318.16
2019-03-03T15:17:30.541Z,97311.67
2019-03-03T15:19:59.865Z,97312.38
2019-03-03T15:22:29.172Z,97308.30
2019-03-03T15:24:58.490Z,97302.05
2019-03-03T15:27:27.893Z,97300.05
2019-03-03T15:29:59.621Z,97302.63
2019-03-03T15:32:30.198Z,97298.52
2019-03-03T15:35:00.989Z,97304.78
2019-03-03T15:37:30.343Z,97308.56
2019-03-03T15:40:00.918Z,97300.24
2019-03-03T15:42:31.526Z,97289.27
2019-03-03T15:45:03.663Z,97295.89
2019-03-03T15:47:33.960Z,97297.81
2019-03-03T15:50:03.238Z,97300.16
2019-03-03T15:52:32.519Z,97300.50
2019-03-03T15:55:04.524Z,97295.26
2019-03-03T15:57:35.365Z,97291.86
2019-03-03T16:00:11.951Z,97284.52
2019-03-03T16:02:41.397Z,97273.85
2019-03-03T16:05:12.963Z,97270.31
2019-03-03T16:07:42.420Z,97271.50
2019-03-03T16:10:20.416Z,97269.07
2019-03-03T16:12:49.669Z,97277.92
2019-03-03T16:15:20.401Z,97275.34
2019-03-03T16:17:49.668Z,97272.48
2019-03-03T16:20:26.254Z,97269.66
2019-03-03T16:22:55.579Z,97261.63
2019-03-03T16:25:25.605Z,97258.30
2019-03-03T16:27:55.829Z,97250.55
2019-03-03T16:30:26.278Z,97246.92
2019-03-03T16:32:56.521Z,97243.50
2019-03-03T16:35:28.132Z,97246.28
2019-03-03T16:37:58.350Z,97247.82
2019-03-03T16:40:29.904Z,97250.55
2019-03-03T16:42:59.748Z,97256.56
2019-03-03T16:45:29.997Z,97260.47
2019-03-03T16:47:59.254Z,97266.73
2019-03-03T16:50:28.554Z,97265.72
2019-03-03T16:52:58.766Z,97268.06
2019-03-03T16:55:27.490Z,97259.51
2019-03-03T16:57:58.738Z,97262.63
2019-03-03T17:00:31.367Z,97266.95
2019-03-03T17:03:01.682Z,97263.38
2019-03-03T17:05:31.622Z,97258.97
2019-03-03T17:08:01.878Z,97257.66
2019-03-03T17:10:31.189Z,97259.14
2019-03-03T17:13:01.525Z,97258.39
2019-03-03T17:15:33.479Z,97257.84
2019-03-03T17:18:03.697Z,97255.16
2019-03-03T17:20:35.408Z,97254.66
2019-03-03T17:23:04.244Z,97252.41
2019-03-03T17:25:34.983Z,97251.58
2019-03-03T17:28:04.265Z,97249.76
2019-03-03T17:30:35.726Z,97245.31
2019-03-03T17:33:05.957Z,97238.85
2019-03-03T17:35:37.647Z,97232.63
2019-03-03T17:38:07.986Z,97223.98
2019-03-03T17:40:37.287Z,97224.72
2019-03-03T17:43:06.617Z,97216.91
2019-03-03T17:45:36.871Z,97218.36
2019-03-03T17:48:09.295Z,97220.05
2019-03-03T17:50:40.337Z,97218.84
2019-03-03T17:53:10.608Z,97220.22
2019-03-03T17:55:40.850Z,97217.36
2019-03-03T17:58:11.638Z,97210.31
2019-03-03T18:00:45.653Z,97216.95
2019-03-03T18:03:14.965Z,97204.09
2019-03-03T18:05:44.229Z,97200.45
2019-03-03T18:08:15.349Z,97198.80
2019-03-03T18:10:44.660Z,97202.56
2019-03-03T18:13:13.385Z,97191.59
2019-03-03T18:15:44.848Z,97188.25
2019-03-03T18:18:14.863Z,97184.41
2019-03-03T18:20:44.133Z,97184.91
2019-03-03T18:23:13.974Z,97181.44
2019-03-03T18:25:44.243Z,97178.38
2019-03-03T18:28:14.564Z,97179.90
2019-03-03T18:30:44.848Z,97179.97
2019-03-03T18:33:17.007Z,97175.11
2019-03-03T18:35:45.746Z,97173.94
2019-03-03T18:38:15.045Z,97171.31
2019-03-03T18:40:44.966Z,97169.72
2019-03-03T18:43:14.278Z,97173.08
2019-03-03T18:45:44.557Z,97169.56
2019-03-03T18:48:17.172Z,97162.23
2019-03-03T18:50:47.440Z,97159.98
2019-03-03T18:53:17.731Z,97162.50
2019-03-03T18:55:47.973Z,97160.97
2019-03-03T18:58:20.039Z,97165.67
2019-03-03T19:00:49.365Z,97168.59
2019-03-03T19:03:21.645Z,97164.95
2019-03-03T19:05:55.660Z,97166.05
2019-03-03T19:08:22.639Z,97156.91
2019-03-03T19:10:51.877Z,97161.11
2019-03-03T19:13:22.276Z,97156.28
2019-03-03T19:15:52.495Z,97148.09
2019-03-03T19:18:21.845Z,97145.18
2019-03-03T19:20:51.077Z,97150.70
2019-03-03T19:23:20.439Z,97140.81
2019-03-03T19:25:51.696Z,97131.45
2019-03-03T19:28:22.008Z,97126.73
2019-03-03T19:30:51.269Z,97133.47
2019-03-03T19:33:28.112Z,97132.53
2019-03-03T19:35:58.319Z,97125.87
2019-03-03T19:38:29.801Z,97121.80
2019-03-03T19:40:59.602Z,97122.55
2019-03-03T19:43:28.953Z,97124.81
2019-03-03T19:46:04.659Z,97134.63
2019-03-03T19:48:36.070Z,97145.69
2019-03-03T19:51:06.675Z,97144.75
2019-03-03T19:53:36.310Z,97146.42
2019-03-03T19:56:06.916Z,97147.31
2019-03-03T19:58:36.239Z,97136.56
2019-03-03T20:01:07.716Z,97133.24
2019-03-03T20:03:37.093Z,97124.69
2019-03-03T20:06:06.441Z,97122.75
2019-03-03T20:08:36.752Z,97129.55
2019-03-03T20:11:06.016Z,97126.72
2019-03-03T20:13:40.017Z,97118.81
2019-03-03T20:16:11.439Z,97117.52
2019-03-03T20:18:41.425Z,97109.29
2019-03-03T20:21:10.763Z,97121.56
2019-03-03T20:23:41.010Z,97109.38
2019-03-03T20:26:10.339Z,97109.04
2019-03-03T20:28:42.891Z,97096.84
2019-03-03T20:31:12.164Z,97089.02
2019-03-03T20:33:42.823Z,97082.55
2019-03-03T20:36:13.041Z,97082.62
2019-03-03T20:38:42.603Z,97079.33
2019-03-03T20:41:11.840Z,97074.76
2019-03-03T20:43:41.150Z,97085.51
2019-03-03T20:46:10.438Z,97076.56
2019-03-03T20:48:40.803Z,97085.89
2019-03-03T20:51:10.030Z,97081.45
2019-03-03T20:53:40.243Z,97083.38
2019-03-03T20:56:10.440Z,97088.50
2019-03-03T20:58:39.750Z,97092.22
2019-03-03T21:01:11.406Z,97081.89
2019-03-03T21:03:41.107Z,97079.70
2019-03-03T21:06:10.437Z,97087.64
2019-03-03T21:08:40.730Z,97077.41
2019-03-03T21:11:10.042Z,97065.95
2019-03-03T21:13:42.158Z,97064.75
2019-03-03T21:16:14.300Z,97069.80
2019-03-03T21:18:44.562Z,97078.34
2019-03-03T21:21:14.839Z,97065.70
2019-03-03T21:23:46.992Z,97068.78
2019-03-03T21:26:16.297Z,97068.28
2019-03-03T21:28:46.487Z,97060.33
2019-03-03T21:31:15.748Z,97070.28
2019-03-03T21:33:45.027Z,97068.77
2019-03-03T21:36:16.075Z,97070.88
2019-03-03T21:38:46.318Z,97063.25
2019-03-03T21:41:15.623Z,97064.03
2019-03-03T21:43:44.902Z,97060.02
2019-03-03T21:46:14.280Z,97062.09
2019-03-03T21:48:44.526Z,97058.80
2019-03-03T21:51:15.556Z,97052.34
2019-03-03T21:53:44.784Z,97049.17
2019-03-03T21:56:15.051Z,97052.28
2019-03-03T21:58:45.286Z,97048.72
2019-03-03T22:01:16.053Z,97043.58
2019-03-03T22:03:46.742Z,97048.56
2019-03-03T22:06:16.904Z,97045.81
2019-03-03T22:08:47.171Z,97045.58
2019-03-03T22:11:19.378Z,97052.61
2019-03-03T22:13:49.580Z,97049.62
2019-03-03T22:16:21.102Z,97040.76
2019-03-03T22:18:51.441Z,97036.80
2019-03-03T22:21:20.791Z,97043.09
2019-03-03T22:23:51.118Z,97035.59
2019-03-03T22:26:21.359Z,97031.02
2019-03-03T22:28:51.590Z,97027.64
2019-03-03T22:31:21.025Z,97026.08
2019-03-03T22:33:51.283Z,97025.62
2019-03-03T22:36:20.581Z,97028.70
2019-03-03T22:38:50.798Z,97029.03
2019-03-03T22:41:22.321Z,97026.67
2019-03-03T22:43:54.417Z,97017.12
2019-03-03T22:46:26.063Z,97014.66
2019-03-03T22:48:55.383Z,96999.88
2019-03-03T22:51:24.679Z,96994.95
2019-03-03T22:53:53.957Z,96994.85
2019-03-03T22:56:24.242Z,96991.91
2019-03-03T22:58:53.509Z,96984.28
2019-03-03T23:01:25.223Z,96983.41
2019-03-03T23:04:04.306Z,96971.66
2019-03-03T23:06:39.574Z,96965.50
2019-03-03T23:09:11.876Z,96965.27
2019-03-03T23:11:44.943Z,96966.73
2019-03-03T23:14:26.225Z,96962.40
2019-03-03T23:17:21.515Z,96971.42
2019-03-03T23:19:56.551Z,96974.53
2019-03-03T23:22:35.665Z,96982.30
2019-03-03T23:25:25.288Z,96988.38
2019-03-03T23:27:57.038Z,96978.91
2019-03-03T23:30:26.315Z,96976.07
2019-03-03T23:32:57.333Z,96974.41
2019-03-03T23:35:27.591Z,96963.08
2019-03-03T23:37:56.869Z,96957.44
2019-03-03T23:40:27.119Z,96952.91
2019-03-03T23:42:57.357Z,96945.02
2019-03-03T23:45:28.974Z,96953.19
2019-03-03T23:47:59.213Z,96955.41
2019-03-03T23:50:31.349Z,96954.81
2019-03-03T23:53:02.741Z,96952.41
2019-03-03T23:55:33.016Z,96954.34
2019-03-03T23:58:03.380Z,96940.61
